sensor_id;sensor_type;location;lat;lon;timestamp;pressure;altitude;pressure_sealevel;temperature;humidity
12475;BME280;6302;42.624;23.334;2023-09-12T00:00:28;93488.03;;;16.13;99.87
12475;BME280;6302;42.624;23.334;2023-09-12T00:02:55;93493.91;;;16.08;100.00
12475;BME280;6302;42.624;23.334;2023-09-12T00:05:22;93491.31;;;16.05;100.00
12475;BME280;6302;42.624;23.334;2023-09-12T00:07:51;93492.91;;;16.02;100.00
12475;BME280;6302;42.624;23.334;2023-09-12T00:10:18;93497.25;;;15.96;100.00
12475;BME280;6302;42.624;23.334;2023-09-12T00:12:45;93496.94;;;15.94;100.00
12475;BME280;6302;42.624;23.334;2023-09-12T00:15:13;93492.44;;;15.91;100.00
12475;BME280;6302;42.624;23.334;2023-09-12T00:17:40;93494.44;;;15.87;100.00
12475;BME280;6302;42.624;23.334;2023-09-12T00:20:08;93489.59;;;15.82;100.00
12475;BME280;6302;42.624;23.334;2023-09-12T00:22:35;93495.47;;;15.77;100.00
12475;BME280;6302;42.624;23.334;2023-09-12T00:25:02;93498.22;;;15.74;100.00
12475;BME280;6302;42.624;23.334;2023-09-12T00:27:29;93499.91;;;15.68;100.00
12475;BME280;6302;42.624;23.334;2023-09-12T00:29:55;93500.41;;;15.63;100.00
12475;BME280;6302;42.624;23.334;2023-09-12T00:32:24;93501.22;;;15.59;100.00
12475;BME280;6302;42.624;23.334;2023-09-12T00:34:51;93493.28;;;15.56;100.00
12475;BME280;6302;42.624;23.334;2023-09-12T00:37:17;93492.63;;;15.52;100.00
12475;BME280;6302;42.624;23.334;2023-09-12T00:39:44;93501.19;;;15.43;100.00
12475;BME280;6302;42.624;23.334;2023-09-12T00:42:13;93502.75;;;15.41;100.00
12475;BME280;6302;42.624;23.334;2023-09-12T00:44:40;93506.28;;;15.38;100.00
12475;BME280;6302;42.624;23.334;2023-09-12T00:47:08;93508.25;;;15.34;100.00
12475;BME280;6302;42.624;23.334;2023-09-12T00:49:38;93499.94;;;15.32;100.00
12475;BME280;6302;42.624;23.334;2023-09-12T00:52:06;93506.41;;;15.31;100.00
12475;BME280;6302;42.624;23.334;2023-09-12T00:54:33;93508.75;;;15.29;100.00
12475;BME280;6302;42.624;23.334;2023-09-12T00:57:00;93500.09;;;15.25;100.00
12475;BME280;6302;42.624;23.334;2023-09-12T00:59:27;93511.59;;;15.22;100.00
12475;BME280;6302;42.624;23.334;2023-09-12T01:01:57;93514.75;;;15.17;100.00
12475;BME280;6302;42.624;23.334;2023-09-12T01:04:25;93519.75;;;15.15;100.00
12475;BME280;6302;42.624;23.334;2023-09-12T01:06:53;93514.09;;;15.13;100.00
12475;BME280;6302;42.624;23.334;2023-09-12T01:09:20;93513.00;;;15.10;100.00
12475;BME280;6302;42.624;23.334;2023-09-12T01:11:47;93521.41;;;15.09;100.00
12475;BME280;6302;42.624;23.334;2023-09-12T01:14:15;93511.91;;;15.08;100.00
12475;BME280;6302;42.624;23.334;2023-09-12T01:16:42;93513.50;;;15.05;100.00
12475;BME280;6302;42.624;23.334;2023-09-12T01:19:10;93518.88;;;15.02;100.00
12475;BME280;6302;42.624;23.334;2023-09-12T01:24:57;93524.56;;;15.04;100.00
12475;BME280;6302;42.624;23.334;2023-09-12T01:27:34;93515.06;;;15.03;100.00
12475;BME280;6302;42.624;23.334;2023-09-12T01:30:04;93526.56;;;14.99;100.00
12475;BME280;6302;42.624;23.334;2023-09-12T01:32:32;93526.28;;;14.94;100.00
12475;BME280;6302;42.624;23.334;2023-09-12T01:34:59;93528.97;;;14.94;100.00
12475;BME280;6302;42.624;23.334;2023-09-12T01:37:29;93529.72;;;14.94;100.00
12475;BME280;6302;42.624;23.334;2023-09-12T01:39:56;93526.72;;;14.92;100.00
12475;BME280;6302;42.624;23.334;2023-09-12T01:42:24;93520.72;;;14.88;100.00
12475;BME280;6302;42.624;23.334;2023-09-12T01:44:57;93520.78;;;14.85;100.00
12475;BME280;6302;42.624;23.334;2023-09-12T01:47:26;93531.50;;;14.81;100.00
12475;BME280;6302;42.624;23.334;2023-09-12T01:49:56;93527.69;;;14.82;100.00
12475;BME280;6302;42.624;23.334;2023-09-12T01:52:24;93526.16;;;14.81;100.00
12475;BME280;6302;42.624;23.334;2023-09-12T01:54:52;93533.44;;;14.81;100.00
12475;BME280;6302;42.624;23.334;2023-09-12T01:57:20;93527.75;;;14.79;100.00
12475;BME280;6302;42.624;23.334;2023-09-12T01:59:47;93534.66;;;14.76;100.00
12475;BME280;6302;42.624;23.334;2023-09-12T02:02:16;93535.50;;;14.73;100.00
12475;BME280;6302;42.624;23.334;2023-09-12T02:04:50;93530.97;;;14.70;100.00
12475;BME280;6302;42.624;23.334;2023-09-12T02:07:19;93536.78;;;14.65;100.00
12475;BME280;6302;42.624;23.334;2023-09-12T02:09:47;93536.84;;;14.62;100.00
12475;BME280;6302;42.624;23.334;2023-09-12T02:12:14;93537.31;;;14.57;100.00
12475;BME280;6302;42.624;23.334;2023-09-12T02:14:41;93537.41;;;14.53;100.00
12475;BME280;6302;42.624;23.334;2023-09-12T02:17:08;93538.22;;;14.50;100.00
12475;BME280;6302;42.624;23.334;2023-09-12T02:19:36;93535.28;;;14.45;100.00
12475;BME280;6302;42.624;23.334;2023-09-12T02:22:03;93535.34;;;14.41;100.00
12475;BME280;6302;42.624;23.334;2023-09-12T02:24:30;93536.16;;;14.38;100.00
12475;BME280;6302;42.624;23.334;2023-09-12T02:26:57;93535.50;;;14.34;100.00
12475;BME280;6302;42.624;23.334;2023-09-12T02:29:24;93533.63;;;14.31;100.00
12475;BME280;6302;42.624;23.334;2023-09-12T02:31:51;93540.88;;;14.30;100.00
12475;BME280;6302;42.624;23.334;2023-09-12T02:34:17;93540.09;;;14.30;100.00
12475;BME280;6302;42.624;23.334;2023-09-12T02:36:45;93538.59;;;14.29;100.00
12475;BME280;6302;42.624;23.334;2023-09-12T02:39:12;93538.66;;;14.25;100.00
12475;BME280;6302;42.624;23.334;2023-09-12T02:41:40;93541.75;;;14.24;100.00
12475;BME280;6302;42.624;23.334;2023-09-12T02:44:07;93535.34;;;14.18;100.00
12475;BME280;6302;42.624;23.334;2023-09-12T02:46:34;93533.13;;;14.16;100.00
12475;BME280;6302;42.624;23.334;2023-09-12T02:49:01;93532.78;;;14.14;100.00
12475;BME280;6302;42.624;23.334;2023-09-12T02:51:28;93539.66;;;14.12;100.00
12475;BME280;6302;42.624;23.334;2023-09-12T02:53:56;93536.59;;;14.13;100.00
12475;BME280;6302;42.624;23.334;2023-09-12T02:56:22;93531.69;;;14.12;100.00
12475;BME280;6302;42.624;23.334;2023-09-12T02:58:49;93536.25;;;14.11;100.00
12475;BME280;6302;42.624;23.334;2023-09-12T03:01:19;93533.63;;;14.08;100.00
12475;BME280;6302;42.624;23.334;2023-09-12T03:03:47;93535.97;;;14.06;100.00
12475;BME280;6302;42.624;23.334;2023-09-12T03:06:14;93539.44;;;14.03;100.00
12475;BME280;6302;42.624;23.334;2023-09-12T03:08:41;93533.75;;;14.01;100.00
12475;BME280;6302;42.624;23.334;2023-09-12T03:11:10;93530.75;;;13.99;100.00
12475;BME280;6302;42.624;23.334;2023-09-12T03:13:39;93534.22;;;13.96;100.00
12475;BME280;6302;42.624;23.334;2023-09-12T03:16:09;93527.75;;;13.97;100.00
12475;BME280;6302;42.624;23.334;2023-09-12T03:18:37;93530.06;;;13.95;100.00
12475;BME280;6302;42.624;23.334;2023-09-12T03:21:03;93535.03;;;13.93;100.00
12475;BME280;6302;42.624;23.334;2023-09-12T03:23:31;93530.88;;;13.92;100.00
12475;BME280;6302;42.624;23.334;2023-09-12T03:26:01;93540.81;;;13.88;100.00
12475;BME280;6302;42.624;23.334;2023-09-12T03:28:30;93543.16;;;13.86;100.00
12475;BME280;6302;42.624;23.334;2023-09-12T03:31:03;93543.22;;;13.82;100.00
12475;BME280;6302;42.624;23.334;2023-09-12T03:33:30;93534.84;;;13.80;100.00
12475;BME280;6302;42.624;23.334;2023-09-12T03:35:57;93539.44;;;13.80;100.00
12475;BME280;6302;42.624;23.334;2023-09-12T03:38:24;93541.00;;;13.77;100.00
12475;BME280;6302;42.624;23.334;2023-09-12T03:40:51;93534.50;;;13.78;100.00
12475;BME280;6302;42.624;23.334;2023-09-12T03:43:17;93546.38;;;13.74;100.00
12475;BME280;6302;42.624;23.334;2023-09-12T03:45:51;93540.25;;;13.77;100.00
12475;BME280;6302;42.624;23.334;2023-09-12T03:48:18;93547.50;;;13.76;100.00
12475;BME280;6302;42.624;23.334;2023-09-12T03:50:45;93548.28;;;13.73;100.00
12475;BME280;6302;42.624;23.334;2023-09-12T03:53:13;93547.91;;;13.75;100.00
12475;BME280;6302;42.624;23.334;2023-09-12T03:55:40;93554.72;;;13.76;100.00
12475;BME280;6302;42.624;23.334;2023-09-12T03:58:07;93546.00;;;13.75;100.00
12475;BME280;6302;42.624;23.334;2023-09-12T04:00:34;93556.25;;;13.77;100.00
12475;BME280;6302;42.624;23.334;2023-09-12T04:03:03;93552.81;;;13.76;100.00
12475;BME280;6302;42.624;23.334;2023-09-12T04:05:29;93554.72;;;13.76;100.00
12475;BME280;6302;42.624;23.334;2023-09-12T04:07:56;93547.91;;;13.75;100.00
12475;BME280;6302;42.624;23.334;2023-09-12T04:10:24;93551.72;;;13.74;100.00
12475;BME280;6302;42.624;23.334;2023-09-12T04:12:50;93557.03;;;13.74;100.00
12475;BME280;6302;42.624;23.334;2023-09-12T04:15:17;93545.63;;;13.73;100.00
12475;BME280;6302;42.624;23.334;2023-09-12T04:17:44;93547.91;;;13.75;100.00
12475;BME280;6302;42.624;23.334;2023-09-12T04:20:12;93553.22;;;13.75;100.00
12475;BME280;6302;42.624;23.334;2023-09-12T04:22:40;93554.00;;;13.75;100.00
12475;BME280;6302;42.624;23.334;2023-09-12T04:25:07;93555.06;;;13.78;100.00
12475;BME280;6302;42.624;23.334;2023-09-12T04:27:34;93551.59;;;13.81;100.00
12475;BME280;6302;42.624;23.334;2023-09-12T04:30:01;93558.44;;;13.82;100.00
12475;BME280;6302;42.624;23.334;2023-09-12T04:32:29;93554.59;;;13.83;100.00
12475;BME280;6302;42.624;23.334;2023-09-12T04:34:55;93559.88;;;13.86;100.00
12475;BME280;6302;42.624;23.334;2023-09-12T04:37:24;93553.75;;;13.89;100.00
12475;BME280;6302;42.624;23.334;2023-09-12T04:39:50;93557.50;;;13.92;100.00
12475;BME280;6302;42.624;23.334;2023-09-12T04:42:17;93557.84;;;13.94;100.00
12475;BME280;6302;42.624;23.334;2023-09-12T04:44:44;93561.22;;;13.98;100.00
12475;BME280;6302;42.624;23.334;2023-09-12T04:47:11;93561.09;;;14.05;100.00
12475;BME280;6302;42.624;23.334;2023-09-12T04:49:38;93557.97;;;14.10;100.00
12475;BME280;6302;42.624;23.334;2023-09-12T04:52:05;93558.59;;;14.17;100.00
12475;BME280;6302;42.624;23.334;2023-09-12T04:54:33;93564.16;;;14.26;100.00
12475;BME280;6302;42.624;23.334;2023-09-12T04:57:01;93557.97;;;14.33;100.00
12475;BME280;6302;42.624;23.334;2023-09-12T04:59:28;93560.50;;;14.40;100.00
12475;BME280;6302;42.624;23.334;2023-09-12T05:01:54;93565.69;;;14.47;100.00
12475;BME280;6302;42.624;23.334;2023-09-12T05:04:21;93570.91;;;14.54;100.00
12475;BME280;6302;42.624;23.334;2023-09-12T05:06:48;93567.75;;;14.59;100.00
12475;BME280;6302;42.624;23.334;2023-09-12T05:09:15;93570.38;;;14.63;100.00
12475;BME280;6302;42.624;23.334;2023-09-12T05:11:43;93575.09;;;14.75;100.00
12475;BME280;6302;42.624;23.334;2023-09-12T05:14:10;93571.94;;;14.80;100.00
12475;BME280;6302;42.624;23.334;2023-09-12T05:16:37;93572.69;;;14.80;100.00
12475;BME280;6302;42.624;23.334;2023-09-12T05:19:04;93570.09;;;14.77;100.00
12475;BME280;6302;42.624;23.334;2023-09-12T05:21:31;93571.13;;;14.83;100.00
12475;BME280;6302;42.624;23.334;2023-09-12T05:23:57;93577.47;;;14.89;100.00
12475;BME280;6302;42.624;23.334;2023-09-12T05:26:24;93577.56;;;14.85;100.00
12475;BME280;6302;42.624;23.334;2023-09-12T05:28:52;93580.91;;;14.89;100.00
12475;BME280;6302;42.624;23.334;2023-09-12T05:31:19;93582.75;;;14.92;100.00
12475;BME280;6302;42.624;23.334;2023-09-12T05:33:46;93578.94;;;14.93;100.00
12475;BME280;6302;42.624;23.334;2023-09-12T05:36:14;93581.31;;;15.08;100.00
12475;BME280;6302;42.624;23.334;2023-09-12T05:38:41;93586.66;;;15.08;100.00
12475;BME280;6302;42.624;23.334;2023-09-12T05:41:07;93590.31;;;15.14;100.00
12475;BME280;6302;42.624;23.334;2023-09-12T05:43:34;93590.53;;;15.23;100.00
12475;BME280;6302;42.624;23.334;2023-09-12T05:46:03;93591.19;;;15.27;100.00
12475;BME280;6302;42.624;23.334;2023-09-12T05:48:30;93593.88;;;15.27;100.00
12475;BME280;6302;42.624;23.334;2023-09-12T05:50:57;93565.47;;;15.17;100.00
12475;BME280;6302;42.624;23.334;2023-09-12T05:53:23;93587.75;;;15.46;100.00
12475;BME280;6302;42.624;23.334;2023-09-12T05:55:50;93589.59;;;15.49;100.00
12475;BME280;6302;42.624;23.334;2023-09-12T05:58:17;93596.13;;;15.48;100.00
12475;BME280;6302;42.624;23.334;2023-09-12T06:00:44;93597.78;;;15.58;100.00
12475;BME280;6302;42.624;23.334;2023-09-12T06:03:15;93590.19;;;15.56;100.00
12475;BME280;6302;42.624;23.334;2023-09-12T06:05:42;93597.81;;;15.74;100.00
12475;BME280;6302;42.624;23.334;2023-09-12T06:08:09;93593.63;;;15.73;100.00
12475;BME280;6302;42.624;23.334;2023-09-12T06:10:36;93602.50;;;15.86;100.00
12475;BME280;6302;42.624;23.334;2023-09-12T06:13:03;93593.81;;;15.98;100.00
12475;BME280;6302;42.624;23.334;2023-09-12T06:15:30;93598.50;;;16.10;100.00
12475;BME280;6302;42.624;23.334;2023-09-12T06:17:57;93592.81;;;16.08;100.00
12475;BME280;6302;42.624;23.334;2023-09-12T06:20:25;93603.34;;;16.15;100.00
12475;BME280;6302;42.624;23.334;2023-09-12T06:22:52;93597.06;;;16.22;100.00
12475;BME280;6302;42.624;23.334;2023-09-12T06:25:19;93601.31;;;16.36;100.00
12475;BME280;6302;42.624;23.334;2023-09-12T06:27:45;93605.72;;;16.42;100.00
12475;BME280;6302;42.624;23.334;2023-09-12T06:30:13;93610.16;;;16.49;100.00
12475;BME280;6302;42.624;23.334;2023-09-12T06:32:40;93603.97;;;16.52;100.00
12475;BME280;6302;42.624;23.334;2023-09-12T06:35:07;93609.81;;;16.63;100.00
12475;BME280;6302;42.624;23.334;2023-09-12T06:37:38;93619.50;;;16.73;100.00
12475;BME280;6302;42.624;23.334;2023-09-12T06:40:06;93617.13;;;16.91;99.16
12475;BME280;6302;42.624;23.334;2023-09-12T06:42:34;93614.09;;;16.89;99.26
12475;BME280;6302;42.624;23.334;2023-09-12T06:45:00;93615.91;;;16.92;99.67
12475;BME280;6302;42.624;23.334;2023-09-12T06:47:27;93618.31;;;17.03;99.08
12475;BME280;6302;42.624;23.334;2023-09-12T06:49:54;93624.31;;;17.07;99.39
12475;BME280;6302;42.624;23.334;2023-09-12T06:52:21;93615.47;;;17.22;96.16
12475;BME280;6302;42.624;23.334;2023-09-12T06:54:49;93626.06;;;17.26;95.85
12475;BME280;6302;42.624;23.334;2023-09-12T06:57:16;93626.09;;;17.38;95.56
12475;BME280;6302;42.624;23.334;2023-09-12T06:59:42;93626.56;;;17.49;93.97
12475;BME280;6302;42.624;23.334;2023-09-12T07:02:09;93617.00;;;17.48;94.16
12475;BME280;6302;42.624;23.334;2023-09-12T07:04:38;93622.97;;;17.69;92.76
12475;BME280;6302;42.624;23.334;2023-09-12T07:07:04;93622.88;;;17.72;92.35
12475;BME280;6302;42.624;23.334;2023-09-12T07:09:31;93622.88;;;17.72;91.03
12475;BME280;6302;42.624;23.334;2023-09-12T07:12:00;93632.41;;;17.86;91.48
12475;BME280;6302;42.624;23.334;2023-09-12T07:14:27;93633.69;;;17.94;88.64
12475;BME280;6302;42.624;23.334;2023-09-12T07:16:55;93631.94;;;18.00;87.71
12475;BME280;6302;42.624;23.334;2023-09-12T07:19:21;93635.38;;;18.13;88.68
12475;BME280;6302;42.624;23.334;2023-09-12T07:21:49;93636.13;;;18.26;87.20
12475;BME280;6302;42.624;23.334;2023-09-12T07:24:16;93635.91;;;18.20;85.95
12475;BME280;6302;42.624;23.334;2023-09-12T07:26:43;93628.72;;;18.30;87.87
12475;BME280;6302;42.624;23.334;2023-09-12T07:29:13;93636.41;;;18.41;84.52
12475;BME280;6302;42.624;23.334;2023-09-12T07:31:39;93635.03;;;18.61;83.75
12475;BME280;6302;42.624;23.334;2023-09-12T07:34:06;93637.47;;;18.68;82.17
12475;BME280;6302;42.624;23.334;2023-09-12T07:36:37;93635.72;;;18.74;82.61
12475;BME280;6302;42.624;23.334;2023-09-12T07:39:04;93631.25;;;18.93;81.11
12475;BME280;6302;42.624;23.334;2023-09-12T07:41:31;93634.50;;;19.10;78.60
12475;BME280;6302;42.624;23.334;2023-09-12T07:43:58;93635.13;;;19.14;77.67
12475;BME280;6302;42.624;23.334;2023-09-12T07:46:28;93631.63;;;19.26;78.00
12475;BME280;6302;42.624;23.334;2023-09-12T07:48:54;93635.03;;;19.39;75.67
12475;BME280;6302;42.624;23.334;2023-09-12T07:51:22;93635.63;;;19.43;74.51
12475;BME280;6302;42.624;23.334;2023-09-12T07:53:49;93636.13;;;19.51;73.17
12475;BME280;6302;42.624;23.334;2023-09-12T07:56:16;93632.13;;;19.55;73.35
12475;BME280;6302;42.624;23.334;2023-09-12T07:58:43;93630.09;;;19.68;72.10
12475;BME280;6302;42.624;23.334;2023-09-12T08:01:10;93630.47;;;19.79;72.35
12475;BME280;6302;42.624;23.334;2023-09-12T08:03:39;93641.28;;;19.97;71.88
12475;BME280;6302;42.624;23.334;2023-09-12T08:06:06;93628.16;;;19.99;70.67
12475;BME280;6302;42.624;23.334;2023-09-12T08:08:33;93633.19;;;19.97;70.70
12475;BME280;6302;42.624;23.334;2023-09-12T08:11:00;93632.38;;;20.09;69.45
12475;BME280;6302;42.624;23.334;2023-09-12T08:13:28;93635.09;;;20.19;67.89
12475;BME280;6302;42.624;23.334;2023-09-12T08:15:55;93635.75;;;20.32;69.13
12475;BME280;6302;42.624;23.334;2023-09-12T08:18:27;93638.19;;;20.57;66.40
12475;BME280;6302;42.624;23.334;2023-09-12T08:20:55;93636.41;;;20.54;67.00
12475;BME280;6302;42.624;23.334;2023-09-12T08:23:22;93636.53;;;20.59;66.97
12475;BME280;6302;42.624;23.334;2023-09-12T08:25:49;93632.22;;;20.80;62.57
12475;BME280;6302;42.624;23.334;2023-09-12T08:28:16;93631.34;;;20.83;63.36
12475;BME280;6302;42.624;23.334;2023-09-12T08:30:44;93632.25;;;20.98;63.42
12475;BME280;6302;42.624;23.334;2023-09-12T08:33:10;93639.16;;;21.08;61.00
12475;BME280;6302;42.624;23.334;2023-09-12T08:35:37;93629.56;;;21.07;61.14
12475;BME280;6302;42.624;23.334;2023-09-12T08:38:05;93631.06;;;21.17;60.34
12475;BME280;6302;42.624;23.334;2023-09-12T08:40:33;93629.09;;;21.27;60.08
12475;BME280;6302;42.624;23.334;2023-09-12T08:43:01;93617.88;;;21.37;58.63
12475;BME280;6302;42.624;23.334;2023-09-12T08:45:29;93620.84;;;21.39;59.70
12475;BME280;6302;42.624;23.334;2023-09-12T08:47:59;93614.22;;;21.59;56.09
12475;BME280;6302;42.624;23.334;2023-09-12T08:50:26;93609.72;;;21.65;57.29
12475;BME280;6302;42.624;23.334;2023-09-12T08:52:56;93611.88;;;21.84;57.65
12475;BME280;6302;42.624;23.334;2023-09-12T08:55:26;93608.69;;;22.04;54.80
12475;BME280;6302;42.624;23.334;2023-09-12T08:57:55;93609.09;;;22.12;54.45
12475;BME280;6302;42.624;23.334;2023-09-12T09:00:23;93606.13;;;22.10;53.95
12475;BME280;6302;42.624;23.334;2023-09-12T09:02:50;93611.69;;;22.30;54.22
12475;BME280;6302;42.624;23.334;2023-09-12T09:05:20;93613.94;;;22.31;53.19
12475;BME280;6302;42.624;23.334;2023-09-12T09:07:48;93605.72;;;22.49;53.57
12475;BME280;6302;42.624;23.334;2023-09-12T09:10:16;93608.22;;;22.62;52.75
12475;BME280;6302;42.624;23.334;2023-09-12T09:12:45;93612.56;;;22.69;50.63
12475;BME280;6302;42.624;23.334;2023-09-12T09:15:23;93607.94;;;22.84;51.82
12475;BME280;6302;42.624;23.334;2023-09-12T09:17:52;93607.22;;;22.98;51.56
12475;BME280;6302;42.624;23.334;2023-09-12T09:20:24;93592.69;;;23.10;50.63
12475;BME280;6302;42.624;23.334;2023-09-12T09:22:59;93595.59;;;23.21;49.50
12475;BME280;6302;42.624;23.334;2023-09-12T09:25:26;93599.81;;;23.22;50.22
12475;BME280;6302;42.624;23.334;2023-09-12T09:27:55;93601.50;;;23.34;48.48
12475;BME280;6302;42.624;23.334;2023-09-12T09:30:40;93599.44;;;23.29;48.44
12475;BME280;6302;42.624;23.334;2023-09-12T09:33:08;93595.94;;;23.38;49.67
12475;BME280;6302;42.624;23.334;2023-09-12T09:35:35;93586.22;;;23.60;50.08
12475;BME280;6302;42.624;23.334;2023-09-12T09:38:03;93582.84;;;23.80;48.94
12475;BME280;6302;42.624;23.334;2023-09-12T09:40:30;93589.44;;;23.93;48.07
12475;BME280;6302;42.624;23.334;2023-09-12T09:43:00;93590.84;;;24.04;47.55
12475;BME280;6302;42.624;23.334;2023-09-12T09:45:27;93592.50;;;24.16;46.95
12475;BME280;6302;42.624;23.334;2023-09-12T09:47:57;93590.25;;;24.29;45.16
12475;BME280;6302;42.624;23.334;2023-09-12T09:50:24;93585.91;;;24.37;44.70
12475;BME280;6302;42.624;23.334;2023-09-12T09:52:54;93587.94;;;24.42;44.74
12475;BME280;6302;42.624;23.334;2023-09-12T09:55:23;93581.31;;;24.43;43.93
12475;BME280;6302;42.624;23.334;2023-09-12T09:57:50;93584.91;;;24.54;44.17
12475;BME280;6302;42.624;23.334;2023-09-12T10:00:22;93579.97;;;24.73;44.16
12475;BME280;6302;42.624;23.334;2023-09-12T10:02:51;93571.97;;;24.84;45.04
12475;BME280;6302;42.624;23.334;2023-09-12T10:05:18;93569.25;;;25.04;42.22
12475;BME280;6302;42.624;23.334;2023-09-12T10:07:48;93572.09;;;25.15;43.84
12475;BME280;6302;42.624;23.334;2023-09-12T10:10:17;93578.88;;;25.31;44.47
12475;BME280;6302;42.624;23.334;2023-09-12T10:12:48;93566.72;;;25.47;43.72
12475;BME280;6302;42.624;23.334;2023-09-12T10:15:19;93562.19;;;25.64;43.52
12475;BME280;6302;42.624;23.334;2023-09-12T10:17:56;93558.88;;;25.80;42.85
12475;BME280;6302;42.624;23.334;2023-09-12T10:20:25;93564.16;;;25.95;41.31
12475;BME280;6302;42.624;23.334;2023-09-12T10:23:01;93563.69;;;26.02;39.52
12475;BME280;6302;42.624;23.334;2023-09-12T10:25:34;93554.25;;;25.92;38.86
12475;BME280;6302;42.624;23.334;2023-09-12T10:28:03;93554.56;;;25.99;39.45
12475;BME280;6302;42.624;23.334;2023-09-12T10:30:32;93563.25;;;26.09;38.38
12475;BME280;6302;42.624;23.334;2023-09-12T10:33:00;93549.13;;;25.99;39.06
12475;BME280;6302;42.624;23.334;2023-09-12T10:35:30;93550.53;;;25.89;37.84
12475;BME280;6302;42.624;23.334;2023-09-12T10:38:00;93541.28;;;25.75;37.05
12475;BME280;6302;42.624;23.334;2023-09-12T10:40:29;93551.63;;;25.71;38.05
12475;BME280;6302;42.624;23.334;2023-09-12T10:42:56;93544.03;;;25.81;38.15
12475;BME280;6302;42.624;23.334;2023-09-12T10:45:23;93543.97;;;26.07;37.34
12475;BME280;6302;42.624;23.334;2023-09-12T10:47:51;93531.72;;;26.22;38.96
12475;BME280;6302;42.624;23.334;2023-09-12T10:50:20;93533.56;;;26.42;39.20
12475;BME280;6302;42.624;23.334;2023-09-12T10:52:47;93536.09;;;26.57;35.39
12475;BME280;6302;42.624;23.334;2023-09-12T10:55:16;93532.84;;;26.41;35.79
12475;BME280;6302;42.624;23.334;2023-09-12T10:58:01;93531.59;;;26.42;37.16
12475;BME280;6302;42.624;23.334;2023-09-12T11:00:29;93526.47;;;26.56;37.22
12475;BME280;6302;42.624;23.334;2023-09-12T11:03:00;93520.34;;;26.72;35.13
12475;BME280;6302;42.624;23.334;2023-09-12T11:05:53;93515.44;;;26.81;34.33
12475;BME280;6302;42.624;23.334;2023-09-12T11:08:20;93517.66;;;26.77;34.36
12475;BME280;6302;42.624;23.334;2023-09-12T11:11:17;93516.97;;;26.99;35.97
12475;BME280;6302;42.624;23.334;2023-09-12T11:13:45;93515.50;;;27.09;34.15
12475;BME280;6302;42.624;23.334;2023-09-12T11:16:13;93507.59;;;27.11;33.16
12475;BME280;6302;42.624;23.334;2023-09-12T11:19:16;93508.56;;;26.97;33.45
12475;BME280;6302;42.624;23.334;2023-09-12T11:21:44;93512.03;;;26.92;34.81
12475;BME280;6302;42.624;23.334;2023-09-12T11:24:12;93510.06;;;26.98;34.50
12475;BME280;6302;42.624;23.334;2023-09-12T11:26:56;93504.88;;;27.05;34.70
12475;BME280;6302;42.624;23.334;2023-09-12T11:29:27;93504.16;;;27.16;33.92
12475;BME280;6302;42.624;23.334;2023-09-12T11:31:55;93493.25;;;27.05;33.86
12475;BME280;6302;42.624;23.334;2023-09-12T11:34:36;93507.84;;;27.19;34.24
12475;BME280;6302;42.624;23.334;2023-09-12T11:37:03;93502.69;;;27.37;34.45
12475;BME280;6302;42.624;23.334;2023-09-12T11:39:32;93490.59;;;27.44;33.50
12475;BME280;6302;42.624;23.334;2023-09-12T11:42:00;93495.53;;;27.56;34.11
12475;BME280;6302;42.624;23.334;2023-09-12T11:44:28;93477.47;;;27.59;34.47
12475;BME280;6302;42.624;23.334;2023-09-12T11:46:58;93491.31;;;27.77;33.76
12475;BME280;6302;42.624;23.334;2023-09-12T11:49:35;93488.81;;;27.91;34.71
12475;BME280;6302;42.624;23.334;2023-09-12T11:52:02;93496.75;;;28.00;33.44
12475;BME280;6302;42.624;23.334;2023-09-12T11:54:30;93486.34;;;28.04;33.22
12475;BME280;6302;42.624;23.334;2023-09-12T11:56:58;93479.41;;;28.08;31.65
12475;BME280;6302;42.624;23.334;2023-09-12T11:59:25;93484.84;;;28.03;32.24
12475;BME280;6302;42.624;23.334;2023-09-12T12:01:53;93480.41;;;28.00;33.25
12475;BME280;6302;42.624;23.334;2023-09-12T12:04:20;93482.84;;;27.98;32.15
12475;BME280;6302;42.624;23.334;2023-09-12T12:06:50;93479.91;;;28.07;32.66
12475;BME280;6302;42.624;23.334;2023-09-12T12:09:18;93481.38;;;28.08;32.18
12475;BME280;6302;42.624;23.334;2023-09-12T12:11:45;93474.94;;;28.00;32.75
12475;BME280;6302;42.624;23.334;2023-09-12T12:14:13;93476.94;;;27.94;32.11
12475;BME280;6302;42.624;23.334;2023-09-12T12:16:41;93478.19;;;27.82;32.43
12475;BME280;6302;42.624;23.334;2023-09-12T12:19:08;93475.19;;;27.85;32.25
12475;BME280;6302;42.624;23.334;2023-09-12T12:21:37;93468.75;;;28.10;33.30
12475;BME280;6302;42.624;23.334;2023-09-12T12:24:10;93471.94;;;28.20;32.31
12475;BME280;6302;42.624;23.334;2023-09-12T12:26:40;93469.00;;;28.07;32.14
12475;BME280;6302;42.624;23.334;2023-09-12T12:29:09;93466.53;;;28.09;32.32
12475;BME280;6302;42.624;23.334;2023-09-12T12:31:36;93466.47;;;28.20;32.32
12475;BME280;6302;42.624;23.334;2023-09-12T12:34:03;93461.00;;;28.31;33.21
12475;BME280;6302;42.624;23.334;2023-09-12T12:36:29;93465.91;;;28.49;33.19
12475;BME280;6302;42.624;23.334;2023-09-12T12:38:57;93463.84;;;28.66;32.66
12475;BME280;6302;42.624;23.334;2023-09-12T12:41:26;93466.75;;;28.79;32.06
12475;BME280;6302;42.624;23.334;2023-09-12T12:43:57;93460.06;;;28.80;31.59
12475;BME280;6302;42.624;23.334;2023-09-12T12:46:26;93469.22;;;28.77;30.67
12475;BME280;6302;42.624;23.334;2023-09-12T12:48:54;93460.34;;;28.71;31.40
12475;BME280;6302;42.624;23.334;2023-09-12T12:51:22;93464.34;;;28.59;31.17
12475;BME280;6302;42.624;23.334;2023-09-12T12:53:51;93456.44;;;28.50;30.94
12475;BME280;6302;42.624;23.334;2023-09-12T12:56:19;93450.56;;;28.35;31.57
12475;BME280;6302;42.624;23.334;2023-09-12T12:58:49;93448.38;;;28.28;31.54
12475;BME280;6302;42.624;23.334;2023-09-12T13:01:16;93452.06;;;28.36;32.24
12475;BME280;6302;42.624;23.334;2023-09-12T13:03:43;93448.81;;;28.43;32.24